DFDMR EDLN-EDLW
Flight info
| Callsign | DFDMR |
|---|---|
| Flight time | 0h 24m |
| Altitude | 19000 |
| Route | ABODU4A ABODU L179 MEVEL Z841 DOMEG DOMEG2A |
| Aircraft | PC12/L-SDFGRWY/S |
Departure
| Time | 2026-04-29 14:18 |
|---|---|
| Airport | Mönchengladbach Airport (EDLN) |
Arrival
| Time | 2026-04-29 14:43 |
|---|---|
| Airport | Dortmund Airport (EDLW) |
| Time | Latitude | Longitude | Altitude | Speed | Heading |
|---|---|---|---|---|---|
| 2026-04-29 14:09 | 51.23031 | 6.49867 | 125 ft | 0 kts | 67° |
| 2026-04-29 14:13 | 51.23035 | 6.49871 | 123 ft | 3 kts | 355° |
| 2026-04-29 14:14 | 51.23100 | 6.49725 | 125 ft | 12 kts | 310° |
| 2026-04-29 14:14 | 51.23104 | 6.49717 | 126 ft | 0 kts | 310° |
| 2026-04-29 14:14 | 51.23120 | 6.49710 | 127 ft | 6 kts | 48° |
| 2026-04-29 14:15 | 51.23160 | 6.49755 | 127 ft | 13 kts | 36° |
| 2026-04-29 14:15 | 51.23152 | 6.49853 | 126 ft | 16 kts | 116° |
| 2026-04-29 14:15 | 51.23229 | 6.49796 | 125 ft | 25 kts | 307° |
| 2026-04-29 14:15 | 51.23298 | 6.49700 | 127 ft | 0 kts | 31° |
| 2026-04-29 14:16 | 51.23328 | 6.49733 | 123 ft | 21 kts | 38° |
| 2026-04-29 14:16 | 51.23335 | 6.49856 | 120 ft | 1 kts | 133° |
| 2026-04-29 14:17 | 51.23198 | 6.50130 | 127 ft | 68 kts | 128° |
| 2026-04-29 14:18 | 51.22797 | 6.50883 | 354 ft | 94 kts | 116° |
| 2026-04-29 14:18 | 51.22386 | 6.51743 | 563 ft | 119 kts | 120° |
| 2026-04-29 14:18 | 51.21774 | 6.52855 | 648 ft | 137 kts | 127° |
| 2026-04-29 14:18 | 51.21148 | 6.53993 | 995 ft | 135 kts | 120° |
| 2026-04-29 14:19 | 51.20596 | 6.55138 | 1726 ft | 126 kts | 121° |
| 2026-04-29 14:19 | 51.20062 | 6.56243 | 2390 ft | 127 kts | 123° |
| 2026-04-29 14:19 | 51.19350 | 6.57122 | 3100 ft | 136 kts | 146° |
| 2026-04-29 14:19 | 51.18400 | 6.57495 | 3790 ft | 146 kts | 170° |
| 2026-04-29 14:20 | 51.17383 | 6.57191 | 4527 ft | 154 kts | 195° |
| 2026-04-29 14:20 | 51.16496 | 6.56165 | 5208 ft | 162 kts | 220° |
| 2026-04-29 14:20 | 51.15702 | 6.54864 | 5994 ft | 163 kts | 219° |
| 2026-04-29 14:20 | 51.14900 | 6.53587 | 6825 ft | 167 kts | 218° |
| 2026-04-29 14:21 | 51.14079 | 6.52259 | 7617 ft | 170 kts | 220° |
| 2026-04-29 14:21 | 51.13247 | 6.50910 | 8441 ft | 172 kts | 221° |
| 2026-04-29 14:21 | 51.12566 | 6.49322 | 9269 ft | 178 kts | 248° |
| 2026-04-29 14:21 | 51.12368 | 6.47383 | 10127 ft | 177 kts | 276° |
| 2026-04-29 14:22 | 51.12702 | 6.45522 | 10901 ft | 173 kts | 305° |
| 2026-04-29 14:22 | 51.13489 | 6.44157 | 11680 ft | 164 kts | 334° |
| 2026-04-29 14:22 | 51.14514 | 6.43568 | 12435 ft | 157 kts | 1° |
| 2026-04-29 14:22 | 51.15430 | 6.43606 | 13006 ft | 160 kts | 8° |
| 2026-04-29 14:23 | 51.15548 | 6.43613 | 13049 ft | 162 kts | 6° |
| 2026-04-29 14:23 | 51.16649 | 6.43685 | 13894 ft | 155 kts | 9° |
| 2026-04-29 14:23 | 51.17736 | 6.43781 | 14602 ft | 158 kts | 8° |
| 2026-04-29 14:23 | 51.18829 | 6.43861 | 15340 ft | 157 kts | 7° |
| 2026-04-29 14:24 | 51.19931 | 6.43942 | 16033 ft | 160 kts | 7° |
| 2026-04-29 14:24 | 51.21044 | 6.44023 | 16773 ft | 161 kts | 6° |
| 2026-04-29 14:24 | 51.22166 | 6.44105 | 17511 ft | 162 kts | 6° |
| 2026-04-29 14:24 | 51.23291 | 6.44187 | 18270 ft | 163 kts | 6° |
| 2026-04-29 14:25 | 51.24431 | 6.44271 | 18924 ft | 167 kts | 6° |
| 2026-04-29 14:25 | 51.25653 | 6.44367 | 19281 ft | 187 kts | 6° |
| 2026-04-29 14:25 | 51.27066 | 6.44479 | 19311 ft | 218 kts | 6° |
| 2026-04-29 14:25 | 51.28643 | 6.44596 | 19313 ft | 239 kts | 5° |
| 2026-04-29 14:26 | 51.30356 | 6.44718 | 19310 ft | 252 kts | 5° |
| 2026-04-29 14:26 | 51.32136 | 6.44845 | 19305 ft | 259 kts | 5° |
| 2026-04-29 14:26 | 51.33952 | 6.44978 | 19320 ft | 262 kts | 5° |
| 2026-04-29 14:26 | 51.35782 | 6.45113 | 19329 ft | 264 kts | 5° |
| 2026-04-29 14:27 | 51.37622 | 6.45249 | 19328 ft | 265 kts | 5° |
| 2026-04-29 14:27 | 51.39464 | 6.45384 | 19327 ft | 265 kts | 5° |
| 2026-04-29 14:27 | 51.41287 | 6.45520 | 19324 ft | 265 kts | 5° |
| 2026-04-29 14:28 | 51.44973 | 6.45793 | 19332 ft | 265 kts | 5° |
| 2026-04-29 14:28 | 51.46821 | 6.45929 | 19332 ft | 265 kts | 5° |
| 2026-04-29 14:28 | 51.48641 | 6.46286 | 19330 ft | 263 kts | 15° |
| 2026-04-29 14:28 | 51.50362 | 6.47255 | 19328 ft | 262 kts | 26° |
| 2026-04-29 14:29 | 51.51917 | 6.48779 | 19326 ft | 262 kts | 37° |
| 2026-04-29 14:29 | 51.53238 | 6.50790 | 19325 ft | 262 kts | 48° |
| 2026-04-29 14:29 | 51.54340 | 6.53128 | 19326 ft | 263 kts | 52° |
| 2026-04-29 14:29 | 51.55436 | 6.55483 | 19332 ft | 263 kts | 51° |
| 2026-04-29 14:30 | 51.56534 | 6.57829 | 19336 ft | 263 kts | 52° |
| 2026-04-29 14:30 | 51.57627 | 6.60181 | 19337 ft | 263 kts | 52° |
| 2026-04-29 14:30 | 51.58704 | 6.62510 | 19338 ft | 262 kts | 52° |
| 2026-04-29 14:30 | 51.59796 | 6.64864 | 19338 ft | 262 kts | 52° |
| 2026-04-29 14:31 | 51.60887 | 6.67218 | 19341 ft | 263 kts | 52° |
| 2026-04-29 14:31 | 51.61821 | 6.69240 | 19341 ft | 263 kts | 52° |
| 2026-04-29 14:31 | 51.61936 | 6.69490 | 19339 ft | 263 kts | 52° |
| 2026-04-29 14:31 | 51.62771 | 6.72078 | 19336 ft | 262 kts | 71° |
| 2026-04-29 14:32 | 51.62959 | 6.74746 | 19325 ft | 227 kts | 88° |
| 2026-04-29 14:32 | 51.62569 | 6.77170 | 19343 ft | 232 kts | 109° |
| 2026-04-29 14:32 | 51.61726 | 6.79513 | 19295 ft | 250 kts | 111° |
| 2026-04-29 14:32 | 51.60901 | 6.82133 | 19076 ft | 271 kts | 111° |
| 2026-04-29 14:33 | 51.60057 | 6.84840 | 19232 ft | 270 kts | 111° |
| 2026-04-29 14:33 | 51.59231 | 6.87565 | 19345 ft | 272 kts | 110° |
| 2026-04-29 14:33 | 51.58418 | 6.90300 | 19342 ft | 276 kts | 110° |
| 2026-04-29 14:33 | 51.57590 | 6.93108 | 19341 ft | 279 kts | 110° |
| 2026-04-29 14:34 | 51.56759 | 6.95935 | 19342 ft | 280 kts | 110° |
| 2026-04-29 14:34 | 51.55931 | 6.98765 | 19296 ft | 281 kts | 110° |
| 2026-04-29 14:34 | 51.55087 | 7.01676 | 18863 ft | 291 kts | 109° |
| 2026-04-29 14:34 | 51.54273 | 7.04627 | 18391 ft | 285 kts | 108° |
| 2026-04-29 14:35 | 51.53511 | 7.07460 | 17745 ft | 270 kts | 108° |
| 2026-04-29 14:35 | 51.52776 | 7.10188 | 17083 ft | 264 kts | 108° |
| 2026-04-29 14:35 | 51.52058 | 7.12868 | 16440 ft | 258 kts | 109° |
| 2026-04-29 14:35 | 51.51364 | 7.15480 | 15811 ft | 253 kts | 108° |
| 2026-04-29 14:36 | 51.50677 | 7.18071 | 15193 ft | 251 kts | 108° |
| 2026-04-29 14:36 | 51.49998 | 7.20631 | 14589 ft | 247 kts | 108° |
| 2026-04-29 14:36 | 51.49331 | 7.23119 | 14005 ft | 244 kts | 108° |
| 2026-04-29 14:36 | 51.48670 | 7.25613 | 13332 ft | 241 kts | 108° |
| 2026-04-29 14:37 | 51.48021 | 7.28080 | 12680 ft | 238 kts | 108° |
| 2026-04-29 14:37 | 51.47384 | 7.30520 | 12009 ft | 236 kts | 108° |
| 2026-04-29 14:37 | 51.46752 | 7.32931 | 11193 ft | 232 kts | 108° |
| 2026-04-29 14:37 | 51.46129 | 7.35297 | 10400 ft | 227 kts | 108° |
| 2026-04-29 14:38 | 51.45519 | 7.37599 | 9554 ft | 217 kts | 108° |
| 2026-04-29 14:38 | 51.44967 | 7.39710 | 8688 ft | 196 kts | 109° |
| 2026-04-29 14:38 | 51.44750 | 7.41725 | 7838 ft | 181 kts | 77° |
| 2026-04-29 14:38 | 51.45428 | 7.43416 | 7015 ft | 185 kts | 53° |
| 2026-04-29 14:39 | 51.46153 | 7.45160 | 6195 ft | 191 kts | 63° |
| 2026-04-29 14:39 | 51.46698 | 7.46718 | 4667 ft | 195 kts | 67° |
| 2026-04-29 14:39 | 51.47046 | 7.47879 | 2460 ft | 185 kts | 64° |
| 2026-04-29 14:39 | 51.47675 | 7.49562 | 2313 ft | 161 kts | 59° |
| 2026-04-29 14:40 | 51.48195 | 7.50895 | 2185 ft | 114 kts | 64° |
| 2026-04-29 14:40 | 51.48555 | 7.51965 | 1827 ft | 123 kts | 57° |
| 2026-04-29 14:40 | 51.48998 | 7.53015 | 1572 ft | 94 kts | 61° |
| 2026-04-29 14:40 | 51.49321 | 7.54016 | 1366 ft | 105 kts | 62° |
| 2026-04-29 14:41 | 51.49682 | 7.55073 | 1242 ft | 103 kts | 63° |
| 2026-04-29 14:41 | 51.49990 | 7.56018 | 1102 ft | 93 kts | 60° |
| 2026-04-29 14:41 | 51.50330 | 7.56926 | 979 ft | 95 kts | 63° |
| 2026-04-29 14:41 | 51.50634 | 7.57809 | 846 ft | 87 kts | 60° |
| 2026-04-29 14:42 | 51.50951 | 7.58733 | 735 ft | 100 kts | 61° |
| 2026-04-29 14:42 | 51.51282 | 7.59669 | 596 ft | 89 kts | 61° |
| 2026-04-29 14:42 | 51.51563 | 7.60463 | 485 ft | 74 kts | 63° |
| 2026-04-29 14:42 | 51.51795 | 7.61120 | 421 ft | 60 kts | 64° |
| 2026-04-29 14:43 | 51.51979 | 7.61639 | 409 ft | 49 kts | 62° |
| 2026-04-29 14:43 | 51.52127 | 7.62059 | 408 ft | 35 kts | 59° |
| 2026-04-29 14:43 | 51.52195 | 7.62290 | 409 ft | 20 kts | 106° |
| 2026-04-29 14:43 | 51.52120 | 7.62370 | 406 ft | 2 kts | 154° |
| 2026-04-29 14:44 | 51.52119 | 7.62370 | 406 ft | 0 kts | 152° |
| 2026-04-29 14:44 | 51.52099 | 7.62387 | 407 ft | 13 kts | 150° |
| 2026-04-29 14:44 | 51.51993 | 7.62225 | 416 ft | 35 kts | 240° |
| 2026-04-29 14:44 | 51.51852 | 7.61824 | 429 ft | 38 kts | 242° |
| 2026-04-29 14:45 | 51.51749 | 7.61530 | 429 ft | 28 kts | 239° |
| 2026-04-29 14:45 | 51.51637 | 7.61217 | 432 ft | 37 kts | 242° |
| 2026-04-29 14:45 | 51.51535 | 7.61062 | 441 ft | 15 kts | 170° |
| 2026-04-29 14:45 | 51.51446 | 7.60875 | 437 ft | 39 kts | 243° |
| 2026-04-29 14:46 | 51.51277 | 7.60396 | 459 ft | 53 kts | 240° |
| 2026-04-29 14:46 | 51.51170 | 7.60160 | 463 ft | 14 kts | 173° |
| 2026-04-29 14:46 | 51.51188 | 7.60288 | 465 ft | 21 kts | 44° |
| 2026-04-29 14:46 | 51.51218 | 7.60436 | 469 ft | 9 kts | 106° |
| 2026-04-29 14:47 | 51.51214 | 7.60458 | 470 ft | 0 kts | 107° |
| 2026-04-29 14:47 | 51.51214 | 7.60457 | 470 ft | 0 kts | 107° |